sensor_id;sensor_type;location;lat;lon;timestamp;temperature;humidity
12959;DHT22;6544;51.666;6.634;2022-12-13T00:00:23;-1.70;99.90
12959;DHT22;6544;51.666;6.634;2022-12-13T00:02:50;-1.80;99.90
12959;DHT22;6544;51.666;6.634;2022-12-13T00:05:17;-1.80;99.90
12959;DHT22;6544;51.666;6.634;2022-12-13T00:07:44;-1.80;99.90
12959;DHT22;6544;51.666;6.634;2022-12-13T00:10:11;-1.80;99.90
12959;DHT22;6544;51.666;6.634;2022-12-13T00:12:39;-1.80;99.90
12959;DHT22;6544;51.666;6.634;2022-12-13T00:15:07;-1.90;99.90
12959;DHT22;6544;51.666;6.634;2022-12-13T00:17:35;-1.90;99.90
12959;DHT22;6544;51.666;6.634;2022-12-13T00:20:02;-1.90;99.90
12959;DHT22;6544;51.666;6.634;2022-12-13T00:22:29;-1.90;99.90
12959;DHT22;6544;51.666;6.634;2022-12-13T00:24:56;-1.90;99.90
12959;DHT22;6544;51.666;6.634;2022-12-13T00:27:23;-1.90;99.90
12959;DHT22;6544;51.666;6.634;2022-12-13T00:29:51;-2.00;99.90
12959;DHT22;6544;51.666;6.634;2022-12-13T00:32:18;-2.00;99.90
12959;DHT22;6544;51.666;6.634;2022-12-13T00:34:45;-2.00;99.90
12959;DHT22;6544;51.666;6.634;2022-12-13T00:37:12;-2.00;99.90
12959;DHT22;6544;51.666;6.634;2022-12-13T00:39:39;-2.00;99.90
12959;DHT22;6544;51.666;6.634;2022-12-13T00:42:06;-2.00;99.90
12959;DHT22;6544;51.666;6.634;2022-12-13T00:44:33;-2.00;99.90
12959;DHT22;6544;51.666;6.634;2022-12-13T00:47:01;-2.00;99.90
12959;DHT22;6544;51.666;6.634;2022-12-13T00:49:28;-2.00;99.90
12959;DHT22;6544;51.666;6.634;2022-12-13T00:51:55;-2.00;99.90
12959;DHT22;6544;51.666;6.634;2022-12-13T00:54:22;-2.00;99.90
12959;DHT22;6544;51.666;6.634;2022-12-13T00:56:49;-2.00;99.90
12959;DHT22;6544;51.666;6.634;2022-12-13T00:59:16;-2.00;99.90
12959;DHT22;6544;51.666;6.634;2022-12-13T01:01:44;-2.10;99.90
12959;DHT22;6544;51.666;6.634;2022-12-13T01:04:12;-2.10;99.90
12959;DHT22;6544;51.666;6.634;2022-12-13T01:06:40;-2.10;99.90
12959;DHT22;6544;51.666;6.634;2022-12-13T01:09:13;-2.20;99.90
12959;DHT22;6544;51.666;6.634;2022-12-13T01:11:41;-2.10;99.90
12959;DHT22;6544;51.666;6.634;2022-12-13T01:14:08;-2.10;99.90
12959;DHT22;6544;51.666;6.634;2022-12-13T01:16:35;-2.10;99.90
12959;DHT22;6544;51.666;6.634;2022-12-13T01:19:02;-2.20;99.90
12959;DHT22;6544;51.666;6.634;2022-12-13T01:21:30;-2.20;99.90
12959;DHT22;6544;51.666;6.634;2022-12-13T01:24:02;-2.20;99.90
12959;DHT22;6544;51.666;6.634;2022-12-13T01:26:29;-2.20;99.90
12959;DHT22;6544;51.666;6.634;2022-12-13T01:28:57;-2.20;99.90
12959;DHT22;6544;51.666;6.634;2022-12-13T01:31:24;-2.20;99.90
12959;DHT22;6544;51.666;6.634;2022-12-13T01:33:51;-2.20;99.90
12959;DHT22;6544;51.666;6.634;2022-12-13T01:36:19;-2.20;99.90
12959;DHT22;6544;51.666;6.634;2022-12-13T01:38:48;-2.30;99.90
12959;DHT22;6544;51.666;6.634;2022-12-13T01:41:17;-2.30;99.90
12959;DHT22;6544;51.666;6.634;2022-12-13T01:43:54;-2.40;99.90
12959;DHT22;6544;51.666;6.634;2022-12-13T01:46:21;-2.40;99.90
12959;DHT22;6544;51.666;6.634;2022-12-13T01:48:52;-2.40;99.90
12959;DHT22;6544;51.666;6.634;2022-12-13T01:51:23;-2.40;99.90
12959;DHT22;6544;51.666;6.634;2022-12-13T01:53:55;-2.40;99.90
12959;DHT22;6544;51.666;6.634;2022-12-13T01:56:27;-2.40;99.90
12959;DHT22;6544;51.666;6.634;2022-12-13T01:58:55;-2.40;99.90
12959;DHT22;6544;51.666;6.634;2022-12-13T02:01:23;-2.50;99.90
12959;DHT22;6544;51.666;6.634;2022-12-13T02:03:50;-2.40;99.90
12959;DHT22;6544;51.666;6.634;2022-12-13T02:06:22;-2.40;99.90
12959;DHT22;6544;51.666;6.634;2022-12-13T02:08:50;-2.40;99.90
12959;DHT22;6544;51.666;6.634;2022-12-13T02:11:19;-2.40;99.90
12959;DHT22;6544;51.666;6.634;2022-12-13T02:13:46;-2.40;99.90
12959;DHT22;6544;51.666;6.634;2022-12-13T02:16:23;-2.40;99.90
12959;DHT22;6544;51.666;6.634;2022-12-13T02:19:12;-2.50;99.90
12959;DHT22;6544;51.666;6.634;2022-12-13T02:21:54;-2.60;99.90
12959;DHT22;6544;51.666;6.634;2022-12-13T02:24:56;-2.60;99.90
12959;DHT22;6544;51.666;6.634;2022-12-13T02:27:42;-2.60;99.90
12959;DHT22;6544;51.666;6.634;2022-12-13T02:30:23;-2.60;99.90
12959;DHT22;6544;51.666;6.634;2022-12-13T02:33:19;-2.60;99.90
12959;DHT22;6544;51.666;6.634;2022-12-13T02:35:51;-2.60;99.90
12959;DHT22;6544;51.666;6.634;2022-12-13T02:38:26;-2.60;99.90
12959;DHT22;6544;51.666;6.634;2022-12-13T02:40:59;-2.60;99.90
12959;DHT22;6544;51.666;6.634;2022-12-13T02:43:31;-2.60;99.90
12959;DHT22;6544;51.666;6.634;2022-12-13T02:46:04;-2.70;99.90
12959;DHT22;6544;51.666;6.634;2022-12-13T02:48:35;-2.70;99.90
12959;DHT22;6544;51.666;6.634;2022-12-13T02:51:04;-2.70;99.90
12959;DHT22;6544;51.666;6.634;2022-12-13T02:53:33;-2.70;99.90
12959;DHT22;6544;51.666;6.634;2022-12-13T02:56:02;-2.70;99.90
12959;DHT22;6544;51.666;6.634;2022-12-13T02:58:33;-2.70;99.90
12959;DHT22;6544;51.666;6.634;2022-12-13T03:01:19;-2.70;99.90
12959;DHT22;6544;51.666;6.634;2022-12-13T03:03:55;-2.70;99.90
12959;DHT22;6544;51.666;6.634;2022-12-13T03:06:30;-2.70;99.90
12959;DHT22;6544;51.666;6.634;2022-12-13T03:09:07;-2.70;99.90
12959;DHT22;6544;51.666;6.634;2022-12-13T03:11:48;-2.70;99.90
12959;DHT22;6544;51.666;6.634;2022-12-13T03:14:36;-2.70;99.90
12959;DHT22;6544;51.666;6.634;2022-12-13T03:17:07;-2.70;99.90
12959;DHT22;6544;51.666;6.634;2022-12-13T03:19:34;-2.80;99.90
12959;DHT22;6544;51.666;6.634;2022-12-13T03:22:04;-2.80;99.90
12959;DHT22;6544;51.666;6.634;2022-12-13T03:24:31;-2.90;99.90
12959;DHT22;6544;51.666;6.634;2022-12-13T03:26:58;-2.90;99.90
12959;DHT22;6544;51.666;6.634;2022-12-13T03:29:25;-2.90;99.90
12959;DHT22;6544;51.666;6.634;2022-12-13T03:31:53;-2.90;99.90
12959;DHT22;6544;51.666;6.634;2022-12-13T03:34:21;-2.90;99.90
12959;DHT22;6544;51.666;6.634;2022-12-13T03:36:48;-2.90;99.90
12959;DHT22;6544;51.666;6.634;2022-12-13T03:39:15;-2.90;99.90
12959;DHT22;6544;51.666;6.634;2022-12-13T03:41:42;-2.90;99.90
12959;DHT22;6544;51.666;6.634;2022-12-13T03:44:09;-2.90;99.90
12959;DHT22;6544;51.666;6.634;2022-12-13T03:46:36;-2.90;99.90
12959;DHT22;6544;51.666;6.634;2022-12-13T03:49:03;-2.90;99.90
12959;DHT22;6544;51.666;6.634;2022-12-13T03:51:31;-3.00;99.90
12959;DHT22;6544;51.666;6.634;2022-12-13T03:53:59;-3.00;99.90
12959;DHT22;6544;51.666;6.634;2022-12-13T03:56:25;-3.00;99.90
12959;DHT22;6544;51.666;6.634;2022-12-13T03:58:52;-3.00;99.90
12959;DHT22;6544;51.666;6.634;2022-12-13T04:01:19;-3.00;99.90
12959;DHT22;6544;51.666;6.634;2022-12-13T04:03:47;-2.90;99.90
12959;DHT22;6544;51.666;6.634;2022-12-13T04:06:15;-3.00;99.90
12959;DHT22;6544;51.666;6.634;2022-12-13T04:08:43;-3.00;99.90
12959;DHT22;6544;51.666;6.634;2022-12-13T04:11:10;-3.00;99.90
12959;DHT22;6544;51.666;6.634;2022-12-13T04:13:55;-3.00;99.90
12959;DHT22;6544;51.666;6.634;2022-12-13T04:16:22;-3.00;99.90
12959;DHT22;6544;51.666;6.634;2022-12-13T04:18:49;-3.00;99.90
12959;DHT22;6544;51.666;6.634;2022-12-13T04:21:16;-2.90;99.90
12959;DHT22;6544;51.666;6.634;2022-12-13T04:23:45;-3.00;99.90
12959;DHT22;6544;51.666;6.634;2022-12-13T04:26:12;-3.00;99.90
12959;DHT22;6544;51.666;6.634;2022-12-13T04:28:39;-3.00;99.90
12959;DHT22;6544;51.666;6.634;2022-12-13T04:31:05;-3.00;99.90
12959;DHT22;6544;51.666;6.634;2022-12-13T04:33:32;-3.10;99.90
12959;DHT22;6544;51.666;6.634;2022-12-13T04:35:59;-3.10;99.90
12959;DHT22;6544;51.666;6.634;2022-12-13T04:38:26;-3.10;99.90
12959;DHT22;6544;51.666;6.634;2022-12-13T04:41:03;-3.10;99.90
12959;DHT22;6544;51.666;6.634;2022-12-13T04:43:30;-3.20;99.90
12959;DHT22;6544;51.666;6.634;2022-12-13T04:45:57;-3.20;99.90
12959;DHT22;6544;51.666;6.634;2022-12-13T04:48:24;-3.20;99.90
12959;DHT22;6544;51.666;6.634;2022-12-13T04:50:51;-3.20;99.90
12959;DHT22;6544;51.666;6.634;2022-12-13T04:53:20;-3.10;99.90
12959;DHT22;6544;51.666;6.634;2022-12-13T04:55:47;-3.20;99.90
12959;DHT22;6544;51.666;6.634;2022-12-13T04:58:15;-3.10;99.90
12959;DHT22;6544;51.666;6.634;2022-12-13T05:00:42;-3.10;99.90
12959;DHT22;6544;51.666;6.634;2022-12-13T05:03:09;-3.10;99.90
12959;DHT22;6544;51.666;6.634;2022-12-13T05:05:38;-3.20;99.90
12959;DHT22;6544;51.666;6.634;2022-12-13T05:08:05;-3.20;99.90
12959;DHT22;6544;51.666;6.634;2022-12-13T05:10:32;-3.20;99.90
12959;DHT22;6544;51.666;6.634;2022-12-13T05:13:00;-3.20;99.90
12959;DHT22;6544;51.666;6.634;2022-12-13T05:15:28;-3.20;99.90
12959;DHT22;6544;51.666;6.634;2022-12-13T05:17:59;-3.20;99.90
12959;DHT22;6544;51.666;6.634;2022-12-13T05:20:27;-3.30;99.90
12959;DHT22;6544;51.666;6.634;2022-12-13T05:22:55;-3.30;99.90
12959;DHT22;6544;51.666;6.634;2022-12-13T05:25:23;-3.30;99.90
12959;DHT22;6544;51.666;6.634;2022-12-13T05:27:50;-3.30;99.90
12959;DHT22;6544;51.666;6.634;2022-12-13T05:30:17;-3.30;99.90
12959;DHT22;6544;51.666;6.634;2022-12-13T05:32:45;-3.30;99.90
12959;DHT22;6544;51.666;6.634;2022-12-13T05:35:12;-3.30;99.90
12959;DHT22;6544;51.666;6.634;2022-12-13T05:37:40;-3.40;99.90
12959;DHT22;6544;51.666;6.634;2022-12-13T05:40:08;-3.40;99.90
12959;DHT22;6544;51.666;6.634;2022-12-13T05:42:35;-3.40;99.90
12959;DHT22;6544;51.666;6.634;2022-12-13T05:45:04;-3.40;99.90
12959;DHT22;6544;51.666;6.634;2022-12-13T05:47:31;-3.50;99.90
12959;DHT22;6544;51.666;6.634;2022-12-13T05:49:59;-3.50;99.90
12959;DHT22;6544;51.666;6.634;2022-12-13T05:52:26;-3.50;99.90
12959;DHT22;6544;51.666;6.634;2022-12-13T05:54:53;-3.50;99.90
12959;DHT22;6544;51.666;6.634;2022-12-13T05:57:21;-3.50;99.90
12959;DHT22;6544;51.666;6.634;2022-12-13T05:59:48;-3.50;99.90
12959;DHT22;6544;51.666;6.634;2022-12-13T06:02:15;-3.50;99.90
12959;DHT22;6544;51.666;6.634;2022-12-13T06:04:43;-3.50;99.90
12959;DHT22;6544;51.666;6.634;2022-12-13T06:07:12;-3.50;99.90
12959;DHT22;6544;51.666;6.634;2022-12-13T06:09:40;-3.50;99.90
12959;DHT22;6544;51.666;6.634;2022-12-13T06:12:07;-3.60;99.90
12959;DHT22;6544;51.666;6.634;2022-12-13T06:14:35;-3.60;99.90
12959;DHT22;6544;51.666;6.634;2022-12-13T06:17:02;-3.50;1.00
12959;DHT22;6544;51.666;6.634;2022-12-13T06:19:29;-3.60;99.90
12959;DHT22;6544;51.666;6.634;2022-12-13T06:21:56;-3.60;1.00
12959;DHT22;6544;51.666;6.634;2022-12-13T06:24:25;-3.60;1.00
12959;DHT22;6544;51.666;6.634;2022-12-13T06:26:53;-3.50;99.90
12959;DHT22;6544;51.666;6.634;2022-12-13T06:29:21;-3.50;99.90
12959;DHT22;6544;51.666;6.634;2022-12-13T06:31:51;-3.50;99.90
12959;DHT22;6544;51.666;6.634;2022-12-13T06:34:18;-3.50;1.00
12959;DHT22;6544;51.666;6.634;2022-12-13T06:36:45;-3.50;99.90
12959;DHT22;6544;51.666;6.634;2022-12-13T06:39:12;-3.50;99.90
12959;DHT22;6544;51.666;6.634;2022-12-13T06:41:42;-3.50;99.90
12959;DHT22;6544;51.666;6.634;2022-12-13T06:44:09;-3.50;99.90
12959;DHT22;6544;51.666;6.634;2022-12-13T06:46:37;-3.50;99.90
12959;DHT22;6544;51.666;6.634;2022-12-13T06:49:04;-3.50;99.90
12959;DHT22;6544;51.666;6.634;2022-12-13T06:51:32;-3.50;99.90
12959;DHT22;6544;51.666;6.634;2022-12-13T06:53:59;-3.50;99.90
12959;DHT22;6544;51.666;6.634;2022-12-13T06:56:26;-3.50;99.90
12959;DHT22;6544;51.666;6.634;2022-12-13T06:58:55;-3.40;99.90
12959;DHT22;6544;51.666;6.634;2022-12-13T07:01:22;-3.50;99.90
12959;DHT22;6544;51.666;6.634;2022-12-13T07:03:48;-3.50;99.90
12959;DHT22;6544;51.666;6.634;2022-12-13T07:06:19;-3.50;99.90
12959;DHT22;6544;51.666;6.634;2022-12-13T07:08:48;-3.50;99.90
12959;DHT22;6544;51.666;6.634;2022-12-13T07:11:17;-3.50;99.90
12959;DHT22;6544;51.666;6.634;2022-12-13T07:13:45;-3.50;99.90
12959;DHT22;6544;51.666;6.634;2022-12-13T07:16:13;-3.50;99.90
12959;DHT22;6544;51.666;6.634;2022-12-13T07:18:40;-3.50;99.90
12959;DHT22;6544;51.666;6.634;2022-12-13T07:21:09;-3.60;99.90
12959;DHT22;6544;51.666;6.634;2022-12-13T07:23:38;-3.60;99.90
12959;DHT22;6544;51.666;6.634;2022-12-13T07:26:06;-3.60;99.90
12959;DHT22;6544;51.666;6.634;2022-12-13T07:28:34;-3.50;99.90
12959;DHT22;6544;51.666;6.634;2022-12-13T07:31:02;-3.60;99.90
12959;DHT22;6544;51.666;6.634;2022-12-13T07:33:30;-3.60;99.90
12959;DHT22;6544;51.666;6.634;2022-12-13T07:36:01;-3.50;99.90
12959;DHT22;6544;51.666;6.634;2022-12-13T07:38:28;-3.60;99.90
12959;DHT22;6544;51.666;6.634;2022-12-13T07:40:56;-3.60;99.90
12959;DHT22;6544;51.666;6.634;2022-12-13T07:43:23;-3.60;99.90
12959;DHT22;6544;51.666;6.634;2022-12-13T07:45:50;-3.70;99.90
12959;DHT22;6544;51.666;6.634;2022-12-13T07:48:17;-3.70;1.00
12959;DHT22;6544;51.666;6.634;2022-12-13T07:50:46;-3.70;1.00
12959;DHT22;6544;51.666;6.634;2022-12-13T07:53:13;-3.70;1.00
12959;DHT22;6544;51.666;6.634;2022-12-13T07:55:39;-3.70;1.00
12959;DHT22;6544;51.666;6.634;2022-12-13T07:58:08;-3.70;1.00
12959;DHT22;6544;51.666;6.634;2022-12-13T08:00:36;-3.70;1.00
12959;DHT22;6544;51.666;6.634;2022-12-13T08:03:04;-3.70;1.00
12959;DHT22;6544;51.666;6.634;2022-12-13T08:05:31;-3.60;1.00
12959;DHT22;6544;51.666;6.634;2022-12-13T08:08:00;-3.60;1.00
12959;DHT22;6544;51.666;6.634;2022-12-13T08:10:27;-3.60;1.00
12959;DHT22;6544;51.666;6.634;2022-12-13T08:12:54;-3.60;1.00
12959;DHT22;6544;51.666;6.634;2022-12-13T08:15:22;-3.60;1.00
12959;DHT22;6544;51.666;6.634;2022-12-13T08:17:50;-3.60;1.00
12959;DHT22;6544;51.666;6.634;2022-12-13T08:20:17;-3.60;1.00
12959;DHT22;6544;51.666;6.634;2022-12-13T08:22:44;-3.60;1.00
12959;DHT22;6544;51.666;6.634;2022-12-13T08:25:12;-3.70;1.00
12959;DHT22;6544;51.666;6.634;2022-12-13T08:27:39;-3.60;1.00
12959;DHT22;6544;51.666;6.634;2022-12-13T08:30:07;-3.60;1.00
12959;DHT22;6544;51.666;6.634;2022-12-13T08:32:34;-3.60;1.00
12959;DHT22;6544;51.666;6.634;2022-12-13T08:35:01;-3.60;1.00
12959;DHT22;6544;51.666;6.634;2022-12-13T08:37:28;-3.60;1.00
12959;DHT22;6544;51.666;6.634;2022-12-13T08:39:55;-3.60;1.00
12959;DHT22;6544;51.666;6.634;2022-12-13T08:42:24;-3.60;1.00
12959;DHT22;6544;51.666;6.634;2022-12-13T08:44:52;-3.50;1.00
12959;DHT22;6544;51.666;6.634;2022-12-13T08:47:20;-3.50;1.00
12959;DHT22;6544;51.666;6.634;2022-12-13T08:49:47;-3.40;1.00
12959;DHT22;6544;51.666;6.634;2022-12-13T08:52:14;-3.40;1.00
12959;DHT22;6544;51.666;6.634;2022-12-13T08:54:41;-3.30;1.00
12959;DHT22;6544;51.666;6.634;2022-12-13T08:57:09;-3.30;1.00
12959;DHT22;6544;51.666;6.634;2022-12-13T08:59:39;-3.20;1.00
12959;DHT22;6544;51.666;6.634;2022-12-13T09:02:10;-3.10;1.00
12959;DHT22;6544;51.666;6.634;2022-12-13T09:04:37;-3.10;1.00
12959;DHT22;6544;51.666;6.634;2022-12-13T09:07:04;-3.00;1.00
12959;DHT22;6544;51.666;6.634;2022-12-13T09:09:31;-2.90;1.00
12959;DHT22;6544;51.666;6.634;2022-12-13T09:11:58;-2.90;1.00
12959;DHT22;6544;51.666;6.634;2022-12-13T09:14:25;-2.80;1.00
12959;DHT22;6544;51.666;6.634;2022-12-13T09:16:53;-2.70;1.00
12959;DHT22;6544;51.666;6.634;2022-12-13T09:19:21;-2.60;1.00
12959;DHT22;6544;51.666;6.634;2022-12-13T09:21:50;-2.50;1.00
12959;DHT22;6544;51.666;6.634;2022-12-13T09:24:17;-2.40;1.00
12959;DHT22;6544;51.666;6.634;2022-12-13T09:26:44;-2.30;1.00
12959;DHT22;6544;51.666;6.634;2022-12-13T09:29:11;-2.20;1.00
12959;DHT22;6544;51.666;6.634;2022-12-13T09:31:41;-2.20;1.00
12959;DHT22;6544;51.666;6.634;2022-12-13T09:34:10;-2.10;1.00
12959;DHT22;6544;51.666;6.634;2022-12-13T09:36:37;-2.00;1.00
12959;DHT22;6544;51.666;6.634;2022-12-13T09:39:04;-1.90;1.00
12959;DHT22;6544;51.666;6.634;2022-12-13T09:41:34;-1.90;1.00
12959;DHT22;6544;51.666;6.634;2022-12-13T09:44:04;-1.80;1.00
12959;DHT22;6544;51.666;6.634;2022-12-13T09:46:35;-1.70;1.00
12959;DHT22;6544;51.666;6.634;2022-12-13T09:49:14;-1.60;1.00
12959;DHT22;6544;51.666;6.634;2022-12-13T09:51:47;-1.50;1.00
12959;DHT22;6544;51.666;6.634;2022-12-13T09:54:18;-1.40;1.00
12959;DHT22;6544;51.666;6.634;2022-12-13T09:56:46;-1.20;1.00
12959;DHT22;6544;51.666;6.634;2022-12-13T09:59:16;-1.10;1.00
12959;DHT22;6544;51.666;6.634;2022-12-13T10:01:43;-1.00;1.00
12959;DHT22;6544;51.666;6.634;2022-12-13T10:04:12;-0.90;1.00
12959;DHT22;6544;51.666;6.634;2022-12-13T10:06:40;-0.80;1.00
12959;DHT22;6544;51.666;6.634;2022-12-13T10:09:11;-0.80;1.00
12959;DHT22;6544;51.666;6.634;2022-12-13T10:11:46;-0.70;1.00
12959;DHT22;6544;51.666;6.634;2022-12-13T10:14:17;-0.60;1.00
12959;DHT22;6544;51.666;6.634;2022-12-13T10:16:49;-0.40;1.00
12959;DHT22;6544;51.666;6.634;2022-12-13T10:19:20;-0.30;1.00
12959;DHT22;6544;51.666;6.634;2022-12-13T10:21:49;-0.20;1.00
12959;DHT22;6544;51.666;6.634;2022-12-13T10:24:19;-0.10;1.00
12959;DHT22;6544;51.666;6.634;2022-12-13T10:26:47;0.00;1.00
12959;DHT22;6544;51.666;6.634;2022-12-13T10:29:14;0.10;1.00
12959;DHT22;6544;51.666;6.634;2022-12-13T10:31:44;0.10;1.00
12959;DHT22;6544;51.666;6.634;2022-12-13T10:34:22;0.20;1.00
12959;DHT22;6544;51.666;6.634;2022-12-13T10:36:50;0.30;1.00
12959;DHT22;6544;51.666;6.634;2022-12-13T10:39:36;0.40;1.00
12959;DHT22;6544;51.666;6.634;2022-12-13T10:42:08;0.20;99.90
12959;DHT22;6544;51.666;6.634;2022-12-13T10:44:36;0.40;99.90
12959;DHT22;6544;51.666;6.634;2022-12-13T10:47:13;0.60;1.00
12959;DHT22;6544;51.666;6.634;2022-12-13T10:49:48;0.70;1.00
12959;DHT22;6544;51.666;6.634;2022-12-13T10:52:23;0.80;99.90
12959;DHT22;6544;51.666;6.634;2022-12-13T10:54:53;0.90;99.90
12959;DHT22;6544;51.666;6.634;2022-12-13T10:57:21;0.90;99.90
12959;DHT22;6544;51.666;6.634;2022-12-13T10:59:48;0.90;99.90
12959;DHT22;6544;51.666;6.634;2022-12-13T11:02:32;1.00;99.90
12959;DHT22;6544;51.666;6.634;2022-12-13T11:05:15;0.90;99.90
12959;DHT22;6544;51.666;6.634;2022-12-13T11:07:46;0.90;99.90
12959;DHT22;6544;51.666;6.634;2022-12-13T11:10:22;1.00;99.90
12959;DHT22;6544;51.666;6.634;2022-12-13T11:12:51;1.10;99.90
12959;DHT22;6544;51.666;6.634;2022-12-13T11:15:22;1.20;99.90
12959;DHT22;6544;51.666;6.634;2022-12-13T11:17:53;1.30;99.90
12959;DHT22;6544;51.666;6.634;2022-12-13T11:20:23;1.30;99.90
12959;DHT22;6544;51.666;6.634;2022-12-13T11:22:59;1.40;99.90
12959;DHT22;6544;51.666;6.634;2022-12-13T11:25:32;1.50;99.90
12959;DHT22;6544;51.666;6.634;2022-12-13T11:28:11;1.50;99.90
12959;DHT22;6544;51.666;6.634;2022-12-13T11:30:46;1.60;99.90
12959;DHT22;6544;51.666;6.634;2022-12-13T11:33:21;1.60;99.90
12959;DHT22;6544;51.666;6.634;2022-12-13T11:36:03;1.60;99.90
12959;DHT22;6544;51.666;6.634;2022-12-13T11:38:40;1.70;99.90
12959;DHT22;6544;51.666;6.634;2022-12-13T11:41:16;1.60;99.90
12959;DHT22;6544;51.666;6.634;2022-12-13T11:43:48;1.70;99.90
12959;DHT22;6544;51.666;6.634;2022-12-13T11:46:21;1.80;99.90
12959;DHT22;6544;51.666;6.634;2022-12-13T11:48:55;1.80;99.90
12959;DHT22;6544;51.666;6.634;2022-12-13T11:51:27;1.80;99.90
12959;DHT22;6544;51.666;6.634;2022-12-13T11:54:00;1.70;99.90
12959;DHT22;6544;51.666;6.634;2022-12-13T11:56:33;1.70;99.90
12959;DHT22;6544;51.666;6.634;2022-12-13T11:59:07;1.80;99.90
12959;DHT22;6544;51.666;6.634;2022-12-13T12:01:40;1.70;99.90
12959;DHT22;6544;51.666;6.634;2022-12-13T12:04:15;1.70;99.90
12959;DHT22;6544;51.666;6.634;2022-12-13T12:06:48;1.80;99.90
12959;DHT22;6544;51.666;6.634;2022-12-13T12:09:18;1.90;99.90
12959;DHT22;6544;51.666;6.634;2022-12-13T12:11:52;1.80;99.90
12959;DHT22;6544;51.666;6.634;2022-12-13T12:14:23;1.80;99.90
12959;DHT22;6544;51.666;6.634;2022-12-13T12:16:51;1.90;99.90
12959;DHT22;6544;51.666;6.634;2022-12-13T12:19:20;1.80;99.90
12959;DHT22;6544;51.666;6.634;2022-12-13T12:22:05;1.80;99.90
12959;DHT22;6544;51.666;6.634;2022-12-13T12:24:42;1.70;99.90
12959;DHT22;6544;51.666;6.634;2022-12-13T12:27:28;1.70;99.90
12959;DHT22;6544;51.666;6.634;2022-12-13T12:30:09;1.70;99.90
12959;DHT22;6544;51.666;6.634;2022-12-13T12:32:43;1.60;99.90
12959;DHT22;6544;51.666;6.634;2022-12-13T12:35:30;1.50;99.90
12959;DHT22;6544;51.666;6.634;2022-12-13T12:38:08;1.50;99.90
12959;DHT22;6544;51.666;6.634;2022-12-13T12:40:54;1.60;99.90
12959;DHT22;6544;51.666;6.634;2022-12-13T12:43:31;1.50;99.90
12959;DHT22;6544;51.666;6.634;2022-12-13T12:46:10;1.50;99.90
12959;DHT22;6544;51.666;6.634;2022-12-13T12:49:02;1.60;99.90
12959;DHT22;6544;51.666;6.634;2022-12-13T12:51:44;1.70;99.90
12959;DHT22;6544;51.666;6.634;2022-12-13T12:54:26;1.60;99.90
12959;DHT22;6544;51.666;6.634;2022-12-13T12:57:04;1.50;99.90
12959;DHT22;6544;51.666;6.634;2022-12-13T12:59:41;1.50;99.90
12959;DHT22;6544;51.666;6.634;2022-12-13T13:02:16;1.60;99.90
12959;DHT22;6544;51.666;6.634;2022-12-13T13:04:49;1.60;99.90
12959;DHT22;6544;51.666;6.634;2022-12-13T13:07:23;1.50;99.90
12959;DHT22;6544;51.666;6.634;2022-12-13T13:09:58;1.40;99.90
12959;DHT22;6544;51.666;6.634;2022-12-13T13:12:38;1.40;99.90
12959;DHT22;6544;51.666;6.634;2022-12-13T13:21:36;1.30;99.90
12959;DHT22;6544;51.666;6.634;2022-12-13T13:24:22;1.30;99.90
12959;DHT22;6544;51.666;6.634;2022-12-13T13:26:51;1.20;99.90
12959;DHT22;6544;51.666;6.634;2022-12-13T13:29:42;1.10;99.90
12959;DHT22;6544;51.666;6.634;2022-12-13T13:32:27;1.10;99.90
12959;DHT22;6544;51.666;6.634;2022-12-13T13:38:00;1.20;99.90
12959;DHT22;6544;51.666;6.634;2022-12-13T13:40:31;1.20;99.90
12959;DHT22;6544;51.666;6.634;2022-12-13T13:43:15;1.20;99.90
12959;DHT22;6544;51.666;6.634;2022-12-13T13:45:56;1.20;99.90
12959;DHT22;6544;51.666;6.634;2022-12-13T13:48:35;1.20;99.90
12959;DHT22;6544;51.666;6.634;2022-12-13T13:51:35;1.20;99.90
12959;DHT22;6544;51.666;6.634;2022-12-13T13:57:35;0.80;99.90
12959;DHT22;6544;51.666;6.634;2022-12-13T14:00:12;0.90;99.90
12959;DHT22;6544;51.666;6.634;2022-12-13T14:21:53;0.70;99.90
12959;DHT22;6544;51.666;6.634;2022-12-13T14:24:31;0.80;99.90
12959;DHT22;6544;51.666;6.634;2022-12-13T14:27:13;0.90;99.90
12959;DHT22;6544;51.666;6.634;2022-12-13T14:29:44;0.80;99.90
12959;DHT22;6544;51.666;6.634;2022-12-13T14:32:18;0.70;99.90
12959;DHT22;6544;51.666;6.634;2022-12-13T14:34:46;0.70;99.90
12959;DHT22;6544;51.666;6.634;2022-12-13T14:37:24;0.70;99.90
12959;DHT22;6544;51.666;6.634;2022-12-13T14:39:53;0.70;99.90
12959;DHT22;6544;51.666;6.634;2022-12-13T14:42:23;0.70;99.90
12959;DHT22;6544;51.666;6.634;2022-12-13T14:44:52;0.80;99.90
12959;DHT22;6544;51.666;6.634;2022-12-13T14:47:20;0.80;99.90
12959;DHT22;6544;51.666;6.634;2022-12-13T14:49:52;0.90;99.90
12959;DHT22;6544;51.666;6.634;2022-12-13T14:52:22;0.90;99.90
12959;DHT22;6544;51.666;6.634;2022-12-13T14:54:51;0.80;99.90
12959;DHT22;6544;51.666;6.634;2022-12-13T14:57:21;0.80;99.90
12959;DHT22;6544;51.666;6.634;2022-12-13T14:59:50;0.70;99.90
12959;DHT22;6544;51.666;6.634;2022-12-13T15:02:20;0.70;99.90
12959;DHT22;6544;51.666;6.634;2022-12-13T15:04:52;0.60;99.90
12959;DHT22;6544;51.666;6.634;2022-12-13T15:07:23;0.70;99.90
12959;DHT22;6544;51.666;6.634;2022-12-13T15:09:55;0.60;99.90
12959;DHT22;6544;51.666;6.634;2022-12-13T15:12:22;0.70;99.90
12959;DHT22;6544;51.666;6.634;2022-12-13T15:14:52;0.70;99.90
12959;DHT22;6544;51.666;6.634;2022-12-13T15:17:27;0.70;99.90
12959;DHT22;6544;51.666;6.634;2022-12-13T15:19:55;0.70;99.90
12959;DHT22;6544;51.666;6.634;2022-12-13T15:22:22;0.70;99.90
12959;DHT22;6544;51.666;6.634;2022-12-13T15:24:49;0.60;99.90
12959;DHT22;6544;51.666;6.634;2022-12-13T15:27:18;0.60;99.90
12959;DHT22;6544;51.666;6.634;2022-12-13T15:29:47;0.60;99.90
12959;DHT22;6544;51.666;6.634;2022-12-13T15:32:15;0.50;99.90
12959;DHT22;6544;51.666;6.634;2022-12-13T15:34:46;0.50;99.90
12959;DHT22;6544;51.666;6.634;2022-12-13T15:37:22;0.50;99.90
12959;DHT22;6544;51.666;6.634;2022-12-13T15:39:53;0.50;99.90
12959;DHT22;6544;51.666;6.634;2022-12-13T15:42:24;0.40;99.90
12959;DHT22;6544;51.666;6.634;2022-12-13T15:44:55;0.40;99.90
12959;DHT22;6544;51.666;6.634;2022-12-13T15:47:23;0.30;99.90
12959;DHT22;6544;51.666;6.634;2022-12-13T15:49:53;0.40;99.90
12959;DHT22;6544;51.666;6.634;2022-12-13T15:52:30;0.40;99.90
12959;DHT22;6544;51.666;6.634;2022-12-13T15:54:59;0.30;99.90
12959;DHT22;6544;51.666;6.634;2022-12-13T15:57:28;0.20;99.90
12959;DHT22;6544;51.666;6.634;2022-12-13T16:00:18;0.20;99.90
12959;DHT22;6544;51.666;6.634;2022-12-13T16:02:50;0.30;99.90
12959;DHT22;6544;51.666;6.634;2022-12-13T16:05:25;0.20;99.90
12959;DHT22;6544;51.666;6.634;2022-12-13T16:07:53;0.20;99.90
12959;DHT22;6544;51.666;6.634;2022-12-13T16:10:21;0.10;99.90
12959;DHT22;6544;51.666;6.634;2022-12-13T16:12:51;0.10;99.90
12959;DHT22;6544;51.666;6.634;2022-12-13T16:15:21;-0.10;1.00
12959;DHT22;6544;51.666;6.634;2022-12-13T16:17:50;-0.20;1.00
12959;DHT22;6544;51.666;6.634;2022-12-13T16:20:18;-0.20;1.00
12959;DHT22;6544;51.666;6.634;2022-12-13T16:22:47;-0.30;1.00
12959;DHT22;6544;51.666;6.634;2022-12-13T16:25:15;-0.40;1.00
12959;DHT22;6544;51.666;6.634;2022-12-13T16:27:43;-0.40;1.00
12959;DHT22;6544;51.666;6.634;2022-12-13T16:30:13;-0.50;1.00
12959;DHT22;6544;51.666;6.634;2022-12-13T16:32:41;-0.40;1.00
12959;DHT22;6544;51.666;6.634;2022-12-13T16:35:08;-0.40;1.00
12959;DHT22;6544;51.666;6.634;2022-12-13T16:37:35;-0.50;1.00
12959;DHT22;6544;51.666;6.634;2022-12-13T16:40:20;-0.50;1.00
12959;DHT22;6544;51.666;6.634;2022-12-13T16:42:48;-0.60;1.00
12959;DHT22;6544;51.666;6.634;2022-12-13T16:45:15;-0.60;1.00
12959;DHT22;6544;51.666;6.634;2022-12-13T16:47:42;-0.70;1.00